sensor_id;sensor_type;location;lat;lon;timestamp;P1;durP1;ratioP1;P2;durP2;ratioP2
7645;SDS011;3864;48.180;14.178;2024-01-07T00:01:47;7.72;;;4.15;;
7645;SDS011;3864;48.180;14.178;2024-01-07T00:04:14;7.38;;;4.32;;
7645;SDS011;3864;48.180;14.178;2024-01-07T00:09:08;7.60;;;4.00;;
7645;SDS011;3864;48.180;14.178;2024-01-07T00:11:36;6.07;;;4.53;;
7645;SDS011;3864;48.180;14.178;2024-01-07T00:14:03;7.28;;;3.90;;
7645;SDS011;3864;48.180;14.178;2024-01-07T00:18:59;5.38;;;3.75;;
7645;SDS011;3864;48.180;14.178;2024-01-07T00:21:26;6.07;;;4.00;;
7645;SDS011;3864;48.180;14.178;2024-01-07T00:23:54;5.43;;;3.80;;
7645;SDS011;3864;48.180;14.178;2024-01-07T00:26:21;6.72;;;4.07;;
7645;SDS011;3864;48.180;14.178;2024-01-07T00:28:48;5.82;;;3.97;;
7645;SDS011;3864;48.180;14.178;2024-01-07T00:31:15;6.30;;;4.22;;
7645;SDS011;3864;48.180;14.178;2024-01-07T00:33:42;7.63;;;5.07;;
7645;SDS011;3864;48.180;14.178;2024-01-07T00:38:37;6.43;;;4.22;;
7645;SDS011;3864;48.180;14.178;2024-01-07T00:41:04;6.75;;;4.60;;
7645;SDS011;3864;48.180;14.178;2024-01-07T00:43:31;6.00;;;4.40;;
7645;SDS011;3864;48.180;14.178;2024-01-07T00:45:58;7.85;;;4.63;;
7645;SDS011;3864;48.180;14.178;2024-01-07T00:48:25;6.43;;;4.45;;
7645;SDS011;3864;48.180;14.178;2024-01-07T00:50:52;5.85;;;4.20;;
7645;SDS011;3864;48.180;14.178;2024-01-07T00:53:21;7.45;;;4.60;;
7645;SDS011;3864;48.180;14.178;2024-01-07T00:55:48;6.75;;;4.45;;
7645;SDS011;3864;48.180;14.178;2024-01-07T00:58:15;7.22;;;4.55;;
7645;SDS011;3864;48.180;14.178;2024-01-07T01:00:42;6.60;;;4.45;;
7645;SDS011;3864;48.180;14.178;2024-01-07T01:03:09;6.47;;;4.45;;
7645;SDS011;3864;48.180;14.178;2024-01-07T01:05:36;7.07;;;4.93;;
7645;SDS011;3864;48.180;14.178;2024-01-07T01:08:04;7.82;;;4.68;;
7645;SDS011;3864;48.180;14.178;2024-01-07T01:10:33;7.35;;;4.95;;
7645;SDS011;3864;48.180;14.178;2024-01-07T01:13:00;8.10;;;4.80;;
7645;SDS011;3864;48.180;14.178;2024-01-07T01:15:27;6.07;;;3.63;;
7645;SDS011;3864;48.180;14.178;2024-01-07T01:17:54;6.65;;;4.43;;
7645;SDS011;3864;48.180;14.178;2024-01-07T01:20:21;6.90;;;4.15;;
7645;SDS011;3864;48.180;14.178;2024-01-07T01:22:48;6.60;;;4.20;;
7645;SDS011;3864;48.180;14.178;2024-01-07T01:25:15;5.35;;;3.40;;
7645;SDS011;3864;48.180;14.178;2024-01-07T01:27:43;6.45;;;4.40;;
7645;SDS011;3864;48.180;14.178;2024-01-07T01:30:10;7.03;;;4.63;;
7645;SDS011;3864;48.180;14.178;2024-01-07T01:32:38;7.07;;;4.78;;
7645;SDS011;3864;48.180;14.178;2024-01-07T01:35:06;7.72;;;4.55;;
7645;SDS011;3864;48.180;14.178;2024-01-07T01:37:33;7.70;;;4.40;;
7645;SDS011;3864;48.180;14.178;2024-01-07T01:40:00;7.43;;;4.50;;
7645;SDS011;3864;48.180;14.178;2024-01-07T01:42:29;8.73;;;4.93;;
7645;SDS011;3864;48.180;14.178;2024-01-07T01:44:58;6.32;;;4.50;;
7645;SDS011;3864;48.180;14.178;2024-01-07T01:47:26;8.85;;;4.55;;
7645;SDS011;3864;48.180;14.178;2024-01-07T01:49:54;6.30;;;4.32;;
7645;SDS011;3864;48.180;14.178;2024-01-07T01:52:21;6.90;;;4.65;;
7645;SDS011;3864;48.180;14.178;2024-01-07T01:54:49;7.05;;;5.15;;
7645;SDS011;3864;48.180;14.178;2024-01-07T01:57:16;7.13;;;4.78;;
7645;SDS011;3864;48.180;14.178;2024-01-07T01:59:48;7.13;;;4.53;;
7645;SDS011;3864;48.180;14.178;2024-01-07T02:02:16;8.38;;;4.90;;
7645;SDS011;3864;48.180;14.178;2024-01-07T02:04:43;7.13;;;4.70;;
7645;SDS011;3864;48.180;14.178;2024-01-07T02:07:10;7.65;;;4.85;;
7645;SDS011;3864;48.180;14.178;2024-01-07T02:09:37;6.60;;;4.00;;
7645;SDS011;3864;48.180;14.178;2024-01-07T02:12:05;6.55;;;4.28;;
7645;SDS011;3864;48.180;14.178;2024-01-07T02:14:36;7.57;;;4.65;;
7645;SDS011;3864;48.180;14.178;2024-01-07T02:17:04;6.47;;;4.53;;
7645;SDS011;3864;48.180;14.178;2024-01-07T02:19:33;6.80;;;4.70;;
7645;SDS011;3864;48.180;14.178;2024-01-07T02:22:00;7.30;;;4.80;;
7645;SDS011;3864;48.180;14.178;2024-01-07T02:24:28;7.00;;;4.72;;
7645;SDS011;3864;48.180;14.178;2024-01-07T02:26:56;7.20;;;4.55;;
7645;SDS011;3864;48.180;14.178;2024-01-07T02:29:27;8.00;;;5.13;;
7645;SDS011;3864;48.180;14.178;2024-01-07T02:31:54;7.43;;;4.65;;
7645;SDS011;3864;48.180;14.178;2024-01-07T02:34:21;6.82;;;4.00;;
7645;SDS011;3864;48.180;14.178;2024-01-07T02:36:48;7.63;;;4.90;;
7645;SDS011;3864;48.180;14.178;2024-01-07T02:39:15;7.82;;;4.68;;
7645;SDS011;3864;48.180;14.178;2024-01-07T02:41:44;8.77;;;5.25;;
7645;SDS011;3864;48.180;14.178;2024-01-07T02:44:11;7.55;;;4.75;;
7645;SDS011;3864;48.180;14.178;2024-01-07T02:46:38;9.63;;;5.15;;
7645;SDS011;3864;48.180;14.178;2024-01-07T02:49:05;6.25;;;4.32;;
7645;SDS011;3864;48.180;14.178;2024-01-07T02:51:33;7.35;;;4.88;;
7645;SDS011;3864;48.180;14.178;2024-01-07T02:54:00;8.07;;;5.50;;
7645;SDS011;3864;48.180;14.178;2024-01-07T02:56:27;9.23;;;5.53;;
7645;SDS011;3864;48.180;14.178;2024-01-07T02:58:55;7.70;;;5.28;;
7645;SDS011;3864;48.180;14.178;2024-01-07T03:01:22;7.28;;;4.93;;
7645;SDS011;3864;48.180;14.178;2024-01-07T03:03:49;7.65;;;5.22;;
7645;SDS011;3864;48.180;14.178;2024-01-07T03:06:16;8.38;;;6.03;;
7645;SDS011;3864;48.180;14.178;2024-01-07T03:08:43;7.18;;;5.22;;
7645;SDS011;3864;48.180;14.178;2024-01-07T03:13:37;8.57;;;5.05;;
7645;SDS011;3864;48.180;14.178;2024-01-07T03:16:07;7.32;;;4.57;;
7645;SDS011;3864;48.180;14.178;2024-01-07T03:18:34;7.75;;;5.00;;
7645;SDS011;3864;48.180;14.178;2024-01-07T03:21:01;8.85;;;5.32;;
7645;SDS011;3864;48.180;14.178;2024-01-07T03:23:28;8.23;;;5.45;;
7645;SDS011;3864;48.180;14.178;2024-01-07T03:25:57;8.15;;;5.53;;
7645;SDS011;3864;48.180;14.178;2024-01-07T03:28:24;7.47;;;5.13;;
7645;SDS011;3864;48.180;14.178;2024-01-07T03:30:51;7.90;;;5.25;;
7645;SDS011;3864;48.180;14.178;2024-01-07T03:33:20;9.13;;;5.78;;
7645;SDS011;3864;48.180;14.178;2024-01-07T03:35:47;7.95;;;5.18;;
7645;SDS011;3864;48.180;14.178;2024-01-07T03:38:14;7.47;;;4.80;;
7645;SDS011;3864;48.180;14.178;2024-01-07T03:40:41;9.85;;;6.20;;
7645;SDS011;3864;48.180;14.178;2024-01-07T03:43:08;8.70;;;5.43;;
7645;SDS011;3864;48.180;14.178;2024-01-07T03:45:35;8.95;;;5.78;;
7645;SDS011;3864;48.180;14.178;2024-01-07T03:50:30;9.48;;;5.43;;
7645;SDS011;3864;48.180;14.178;2024-01-07T03:52:57;7.55;;;5.05;;
7645;SDS011;3864;48.180;14.178;2024-01-07T03:55:24;9.38;;;5.78;;
7645;SDS011;3864;48.180;14.178;2024-01-07T03:57:51;8.65;;;5.32;;
7645;SDS011;3864;48.180;14.178;2024-01-07T04:00:18;7.65;;;5.45;;
7645;SDS011;3864;48.180;14.178;2024-01-07T04:02:46;8.73;;;5.30;;
7645;SDS011;3864;48.180;14.178;2024-01-07T04:05:13;8.32;;;5.13;;
7645;SDS011;3864;48.180;14.178;2024-01-07T04:07:42;8.18;;;5.25;;
7645;SDS011;3864;48.180;14.178;2024-01-07T04:10:09;7.65;;;5.10;;
7645;SDS011;3864;48.180;14.178;2024-01-07T04:12:36;8.45;;;5.18;;
7645;SDS011;3864;48.180;14.178;2024-01-07T04:15:04;8.20;;;4.88;;
7645;SDS011;3864;48.180;14.178;2024-01-07T04:17:31;8.10;;;5.40;;
7645;SDS011;3864;48.180;14.178;2024-01-07T04:19:58;9.25;;;5.38;;
7645;SDS011;3864;48.180;14.178;2024-01-07T04:22:25;8.38;;;5.68;;
7645;SDS011;3864;48.180;14.178;2024-01-07T04:24:54;8.18;;;5.32;;
7645;SDS011;3864;48.180;14.178;2024-01-07T04:27:21;7.40;;;4.95;;
7645;SDS011;3864;48.180;14.178;2024-01-07T04:29:49;8.90;;;5.32;;
7645;SDS011;3864;48.180;14.178;2024-01-07T04:34:44;9.27;;;5.32;;
7645;SDS011;3864;48.180;14.178;2024-01-07T04:39:38;9.30;;;4.82;;
7645;SDS011;3864;48.180;14.178;2024-01-07T04:42:07;10.88;;;6.80;;
7645;SDS011;3864;48.180;14.178;2024-01-07T04:44:35;8.93;;;5.65;;
7645;SDS011;3864;48.180;14.178;2024-01-07T04:47:02;8.65;;;5.78;;
7645;SDS011;3864;48.180;14.178;2024-01-07T04:49:29;8.85;;;6.15;;
7645;SDS011;3864;48.180;14.178;2024-01-07T04:51:56;9.38;;;5.78;;
7645;SDS011;3864;48.180;14.178;2024-01-07T04:54:23;9.02;;;5.57;;
7645;SDS011;3864;48.180;14.178;2024-01-07T04:59:18;8.57;;;5.53;;
7645;SDS011;3864;48.180;14.178;2024-01-07T05:01:45;8.77;;;5.60;;
7645;SDS011;3864;48.180;14.178;2024-01-07T05:04:12;8.27;;;5.45;;
7645;SDS011;3864;48.180;14.178;2024-01-07T05:06:39;8.77;;;5.70;;
7645;SDS011;3864;48.180;14.178;2024-01-07T05:11:33;9.15;;;5.47;;
7645;SDS011;3864;48.180;14.178;2024-01-07T05:14:05;8.50;;;5.72;;
7645;SDS011;3864;48.180;14.178;2024-01-07T05:16:33;9.35;;;6.38;;
7645;SDS011;3864;48.180;14.178;2024-01-07T05:19:00;9.20;;;5.95;;
7645;SDS011;3864;48.180;14.178;2024-01-07T05:21:28;9.35;;;5.05;;
7645;SDS011;3864;48.180;14.178;2024-01-07T05:23:55;8.65;;;6.00;;
7645;SDS011;3864;48.180;14.178;2024-01-07T05:26:22;9.23;;;5.57;;
7645;SDS011;3864;48.180;14.178;2024-01-07T05:28:49;9.13;;;5.88;;
7645;SDS011;3864;48.180;14.178;2024-01-07T05:31:16;10.48;;;6.20;;
7645;SDS011;3864;48.180;14.178;2024-01-07T05:33:46;9.10;;;5.50;;
7645;SDS011;3864;48.180;14.178;2024-01-07T05:36:12;9.18;;;6.35;;
7645;SDS011;3864;48.180;14.178;2024-01-07T05:38:41;8.40;;;5.63;;
7645;SDS011;3864;48.180;14.178;2024-01-07T05:41:08;11.27;;;6.90;;
7645;SDS011;3864;48.180;14.178;2024-01-07T05:43:35;10.23;;;6.10;;
7645;SDS011;3864;48.180;14.178;2024-01-07T05:46:02;10.77;;;6.72;;
7645;SDS011;3864;48.180;14.178;2024-01-07T05:48:29;9.88;;;6.32;;
7645;SDS011;3864;48.180;14.178;2024-01-07T05:51:09;10.43;;;5.53;;
7645;SDS011;3864;48.180;14.178;2024-01-07T05:53:36;9.48;;;5.75;;
7645;SDS011;3864;48.180;14.178;2024-01-07T05:58:30;8.40;;;5.20;;
7645;SDS011;3864;48.180;14.178;2024-01-07T06:03:25;9.65;;;5.28;;
7645;SDS011;3864;48.180;14.178;2024-01-07T06:08:20;9.95;;;5.60;;
7645;SDS011;3864;48.180;14.178;2024-01-07T06:10:47;9.80;;;5.68;;
7645;SDS011;3864;48.180;14.178;2024-01-07T06:13:14;10.82;;;6.28;;
7645;SDS011;3864;48.180;14.178;2024-01-07T06:15:42;9.50;;;6.05;;
7645;SDS011;3864;48.180;14.178;2024-01-07T06:20:35;8.65;;;5.25;;
7645;SDS011;3864;48.180;14.178;2024-01-07T06:23:02;9.70;;;5.97;;
7645;SDS011;3864;48.180;14.178;2024-01-07T06:25:31;9.27;;;5.65;;
7645;SDS011;3864;48.180;14.178;2024-01-07T06:27:58;9.27;;;5.72;;
7645;SDS011;3864;48.180;14.178;2024-01-07T06:30:25;8.88;;;5.63;;
7645;SDS011;3864;48.180;14.178;2024-01-07T06:32:52;7.53;;;5.20;;
7645;SDS011;3864;48.180;14.178;2024-01-07T06:35:19;9.90;;;5.80;;
7645;SDS011;3864;48.180;14.178;2024-01-07T06:40:13;8.68;;;5.78;;
7645;SDS011;3864;48.180;14.178;2024-01-07T06:42:42;9.30;;;5.78;;
7645;SDS011;3864;48.180;14.178;2024-01-07T06:45:09;9.23;;;5.80;;
7645;SDS011;3864;48.180;14.178;2024-01-07T06:47:37;9.40;;;5.57;;
7645;SDS011;3864;48.180;14.178;2024-01-07T06:50:04;8.98;;;6.05;;
7645;SDS011;3864;48.180;14.178;2024-01-07T06:52:31;7.78;;;4.70;;
7645;SDS011;3864;48.180;14.178;2024-01-07T06:54:58;10.07;;;5.53;;
7645;SDS011;3864;48.180;14.178;2024-01-07T06:57:26;7.97;;;5.65;;
7645;SDS011;3864;48.180;14.178;2024-01-07T06:59:54;8.30;;;5.38;;
7645;SDS011;3864;48.180;14.178;2024-01-07T07:02:21;10.10;;;5.35;;
7645;SDS011;3864;48.180;14.178;2024-01-07T07:04:49;8.50;;;5.22;;
7645;SDS011;3864;48.180;14.178;2024-01-07T07:07:16;8.13;;;5.05;;
7645;SDS011;3864;48.180;14.178;2024-01-07T07:09:43;9.60;;;5.60;;
7645;SDS011;3864;48.180;14.178;2024-01-07T07:12:11;8.57;;;5.00;;
7645;SDS011;3864;48.180;14.178;2024-01-07T07:14:39;8.27;;;4.78;;
7645;SDS011;3864;48.180;14.178;2024-01-07T07:19:34;6.85;;;4.45;;
7645;SDS011;3864;48.180;14.178;2024-01-07T07:22:01;7.22;;;4.57;;
7645;SDS011;3864;48.180;14.178;2024-01-07T07:24:28;7.97;;;4.97;;
7645;SDS011;3864;48.180;14.178;2024-01-07T07:26:55;6.88;;;4.57;;
7645;SDS011;3864;48.180;14.178;2024-01-07T07:29:22;7.82;;;4.75;;
7645;SDS011;3864;48.180;14.178;2024-01-07T07:31:49;7.38;;;4.85;;
7645;SDS011;3864;48.180;14.178;2024-01-07T07:34:17;6.65;;;4.68;;
7645;SDS011;3864;48.180;14.178;2024-01-07T07:36:44;7.07;;;4.72;;
7645;SDS011;3864;48.180;14.178;2024-01-07T07:39:11;6.60;;;4.70;;
7645;SDS011;3864;48.180;14.178;2024-01-07T07:41:39;7.57;;;4.57;;
7645;SDS011;3864;48.180;14.178;2024-01-07T07:46:33;5.88;;;4.38;;
7645;SDS011;3864;48.180;14.178;2024-01-07T07:49:00;6.20;;;4.03;;
7645;SDS011;3864;48.180;14.178;2024-01-07T07:53:55;6.53;;;3.60;;
7645;SDS011;3864;48.180;14.178;2024-01-07T07:56:23;6.28;;;4.22;;
7645;SDS011;3864;48.180;14.178;2024-01-07T08:01:17;7.20;;;4.15;;
7645;SDS011;3864;48.180;14.178;2024-01-07T08:03:44;6.07;;;3.60;;
7645;SDS011;3864;48.180;14.178;2024-01-07T08:06:11;7.82;;;4.30;;
7645;SDS011;3864;48.180;14.178;2024-01-07T08:11:07;5.43;;;4.00;;
7645;SDS011;3864;48.180;14.178;2024-01-07T08:16:01;6.47;;;3.47;;
7645;SDS011;3864;48.180;14.178;2024-01-07T08:18:28;8.45;;;4.50;;
7645;SDS011;3864;48.180;14.178;2024-01-07T08:20:55;7.00;;;4.47;;
7645;SDS011;3864;48.180;14.178;2024-01-07T08:23:23;5.53;;;4.00;;
7645;SDS011;3864;48.180;14.178;2024-01-07T08:25:52;8.93;;;4.35;;
7645;SDS011;3864;48.180;14.178;2024-01-07T08:28:20;6.18;;;4.43;;
7645;SDS011;3864;48.180;14.178;2024-01-07T08:30:47;8.55;;;4.63;;
7645;SDS011;3864;48.180;14.178;2024-01-07T08:33:14;7.88;;;4.38;;
7645;SDS011;3864;48.180;14.178;2024-01-07T08:35:41;9.05;;;4.53;;
7645;SDS011;3864;48.180;14.178;2024-01-07T08:38:08;7.93;;;4.95;;
7645;SDS011;3864;48.180;14.178;2024-01-07T08:40:35;7.07;;;5.10;;
7645;SDS011;3864;48.180;14.178;2024-01-07T08:43:04;8.15;;;5.13;;
7645;SDS011;3864;48.180;14.178;2024-01-07T08:45:31;7.07;;;5.10;;
7645;SDS011;3864;48.180;14.178;2024-01-07T08:47:58;9.93;;;5.25;;
7645;SDS011;3864;48.180;14.178;2024-01-07T08:50:25;10.10;;;6.05;;
7645;SDS011;3864;48.180;14.178;2024-01-07T08:52:51;8.38;;;5.88;;
7645;SDS011;3864;48.180;14.178;2024-01-07T08:55:18;10.95;;;6.07;;
7645;SDS011;3864;48.180;14.178;2024-01-07T08:57:45;8.18;;;5.32;;
7645;SDS011;3864;48.180;14.178;2024-01-07T09:00:17;8.68;;;5.80;;
7645;SDS011;3864;48.180;14.178;2024-01-07T09:02:44;9.88;;;5.90;;
7645;SDS011;3864;48.180;14.178;2024-01-07T09:05:12;8.10;;;5.47;;
7645;SDS011;3864;48.180;14.178;2024-01-07T09:07:39;9.05;;;5.80;;
7645;SDS011;3864;48.180;14.178;2024-01-07T09:10:06;9.48;;;5.63;;
7645;SDS011;3864;48.180;14.178;2024-01-07T09:12:36;8.27;;;5.60;;
7645;SDS011;3864;48.180;14.178;2024-01-07T09:15:04;8.38;;;6.05;;
7645;SDS011;3864;48.180;14.178;2024-01-07T09:17:35;7.85;;;5.28;;
7645;SDS011;3864;48.180;14.178;2024-01-07T09:20:03;9.00;;;5.60;;
7645;SDS011;3864;48.180;14.178;2024-01-07T09:22:32;8.55;;;5.90;;
7645;SDS011;3864;48.180;14.178;2024-01-07T09:27:26;10.05;;;5.70;;
7645;SDS011;3864;48.180;14.178;2024-01-07T09:32:20;32.30;;;17.23;;
7645;SDS011;3864;48.180;14.178;2024-01-07T09:34:49;13.60;;;8.35;;
7645;SDS011;3864;48.180;14.178;2024-01-07T09:37:16;10.85;;;6.95;;
7645;SDS011;3864;48.180;14.178;2024-01-07T09:39:43;15.48;;;10.45;;
7645;SDS011;3864;48.180;14.178;2024-01-07T09:42:12;9.93;;;6.40;;
7645;SDS011;3864;48.180;14.178;2024-01-07T09:44:41;10.10;;;6.40;;
7645;SDS011;3864;48.180;14.178;2024-01-07T09:47:10;8.77;;;6.65;;
7645;SDS011;3864;48.180;14.178;2024-01-07T09:49:37;10.82;;;7.38;;
7645;SDS011;3864;48.180;14.178;2024-01-07T09:52:07;11.50;;;6.80;;
7645;SDS011;3864;48.180;14.178;2024-01-07T09:54:35;10.50;;;6.07;;
7645;SDS011;3864;48.180;14.178;2024-01-07T09:57:04;11.88;;;6.82;;
7645;SDS011;3864;48.180;14.178;2024-01-07T09:59:32;10.82;;;6.57;;
7645;SDS011;3864;48.180;14.178;2024-01-07T10:02:01;12.05;;;6.88;;
7645;SDS011;3864;48.180;14.178;2024-01-07T10:04:29;11.77;;;6.50;;
7645;SDS011;3864;48.180;14.178;2024-01-07T10:06:56;10.70;;;6.55;;
7645;SDS011;3864;48.180;14.178;2024-01-07T10:09:28;12.25;;;6.63;;
7645;SDS011;3864;48.180;14.178;2024-01-07T10:11:56;9.95;;;6.35;;
7645;SDS011;3864;48.180;14.178;2024-01-07T10:14:23;10.18;;;6.03;;
7645;SDS011;3864;48.180;14.178;2024-01-07T10:16:51;9.00;;;5.55;;
7645;SDS011;3864;48.180;14.178;2024-01-07T10:19:19;11.55;;;8.00;;
7645;SDS011;3864;48.180;14.178;2024-01-07T10:21:58;7.47;;;5.10;;
7645;SDS011;3864;48.180;14.178;2024-01-07T10:24:29;8.63;;;5.18;;
7645;SDS011;3864;48.180;14.178;2024-01-07T10:27:04;9.05;;;6.15;;
7645;SDS011;3864;48.180;14.178;2024-01-07T10:29:31;7.47;;;5.70;;
7645;SDS011;3864;48.180;14.178;2024-01-07T10:31:58;8.20;;;5.22;;
7645;SDS011;3864;48.180;14.178;2024-01-07T10:34:28;10.15;;;5.38;;
7645;SDS011;3864;48.180;14.178;2024-01-07T10:36:56;8.73;;;5.72;;
7645;SDS011;3864;48.180;14.178;2024-01-07T10:39:25;10.13;;;6.40;;
7645;SDS011;3864;48.180;14.178;2024-01-07T10:44:23;6.50;;;4.57;;
7645;SDS011;3864;48.180;14.178;2024-01-07T10:46:52;7.65;;;4.50;;
7645;SDS011;3864;48.180;14.178;2024-01-07T10:49:21;7.80;;;4.88;;
7645;SDS011;3864;48.180;14.178;2024-01-07T10:51:52;8.20;;;5.68;;
7645;SDS011;3864;48.180;14.178;2024-01-07T10:54:29;10.63;;;6.28;;
7645;SDS011;3864;48.180;14.178;2024-01-07T10:57:01;8.73;;;5.60;;
7645;SDS011;3864;48.180;14.178;2024-01-07T10:59:36;9.50;;;6.30;;
7645;SDS011;3864;48.180;14.178;2024-01-07T11:02:03;7.22;;;4.90;;
7645;SDS011;3864;48.180;14.178;2024-01-07T11:04:32;12.52;;;6.03;;
7645;SDS011;3864;48.180;14.178;2024-01-07T11:07:09;10.30;;;5.55;;
7645;SDS011;3864;48.180;14.178;2024-01-07T11:09:47;11.93;;;5.25;;
7645;SDS011;3864;48.180;14.178;2024-01-07T11:12:22;6.97;;;5.03;;
7645;SDS011;3864;48.180;14.178;2024-01-07T11:14:50;8.32;;;5.63;;
7645;SDS011;3864;48.180;14.178;2024-01-07T11:17:39;13.02;;;5.90;;
7645;SDS011;3864;48.180;14.178;2024-01-07T11:20:18;14.95;;;5.85;;
7645;SDS011;3864;48.180;14.178;2024-01-07T11:22:47;8.85;;;4.63;;
7645;SDS011;3864;48.180;14.178;2024-01-07T11:28:05;9.18;;;5.40;;
7645;SDS011;3864;48.180;14.178;2024-01-07T11:30:37;10.10;;;6.03;;
7645;SDS011;3864;48.180;14.178;2024-01-07T11:33:06;11.38;;;6.18;;
7645;SDS011;3864;48.180;14.178;2024-01-07T11:35:56;8.82;;;5.65;;
7645;SDS011;3864;48.180;14.178;2024-01-07T11:38:27;8.13;;;5.53;;
7645;SDS011;3864;48.180;14.178;2024-01-07T11:40:55;11.63;;;6.05;;
7645;SDS011;3864;48.180;14.178;2024-01-07T11:43:25;10.55;;;5.32;;
7645;SDS011;3864;48.180;14.178;2024-01-07T11:45:55;15.35;;;7.20;;
7645;SDS011;3864;48.180;14.178;2024-01-07T11:48:22;12.93;;;7.05;;
7645;SDS011;3864;48.180;14.178;2024-01-07T11:50:49;10.80;;;5.93;;
7645;SDS011;3864;48.180;14.178;2024-01-07T11:53:16;9.27;;;5.80;;
7645;SDS011;3864;48.180;14.178;2024-01-07T11:58:11;8.43;;;5.80;;
7645;SDS011;3864;48.180;14.178;2024-01-07T12:03:06;10.07;;;5.53;;
7645;SDS011;3864;48.180;14.178;2024-01-07T12:05:33;7.65;;;5.40;;
7645;SDS011;3864;48.180;14.178;2024-01-07T12:08:00;10.32;;;5.95;;
7645;SDS011;3864;48.180;14.178;2024-01-07T12:10:28;8.30;;;6.10;;
7645;SDS011;3864;48.180;14.178;2024-01-07T12:12:55;8.68;;;5.40;;
7645;SDS011;3864;48.180;14.178;2024-01-07T12:15:23;9.52;;;5.60;;
7645;SDS011;3864;48.180;14.178;2024-01-07T12:17:58;8.27;;;6.22;;
7645;SDS011;3864;48.180;14.178;2024-01-07T12:20:26;10.43;;;6.05;;
7645;SDS011;3864;48.180;14.178;2024-01-07T12:22:55;9.90;;;5.60;;
7645;SDS011;3864;48.180;14.178;2024-01-07T12:25:24;10.25;;;5.60;;
7645;SDS011;3864;48.180;14.178;2024-01-07T12:27:51;8.38;;;5.82;;
7645;SDS011;3864;48.180;14.178;2024-01-07T12:30:19;10.80;;;6.93;;
7645;SDS011;3864;48.180;14.178;2024-01-07T12:32:46;11.43;;;7.15;;
7645;SDS011;3864;48.180;14.178;2024-01-07T12:35:15;11.50;;;6.50;;
7645;SDS011;3864;48.180;14.178;2024-01-07T12:37:43;9.70;;;6.63;;
7645;SDS011;3864;48.180;14.178;2024-01-07T12:40:11;10.85;;;6.18;;
7645;SDS011;3864;48.180;14.178;2024-01-07T12:42:39;10.98;;;6.32;;
7645;SDS011;3864;48.180;14.178;2024-01-07T12:45:10;8.45;;;5.95;;
7645;SDS011;3864;48.180;14.178;2024-01-07T12:47:39;9.13;;;6.25;;
7645;SDS011;3864;48.180;14.178;2024-01-07T12:50:06;9.77;;;6.10;;
7645;SDS011;3864;48.180;14.178;2024-01-07T12:52:36;9.18;;;6.43;;
7645;SDS011;3864;48.180;14.178;2024-01-07T12:55:04;10.52;;;7.57;;
7645;SDS011;3864;48.180;14.178;2024-01-07T12:57:32;11.07;;;7.10;;
7645;SDS011;3864;48.180;14.178;2024-01-07T12:59:59;10.75;;;6.35;;
7645;SDS011;3864;48.180;14.178;2024-01-07T13:02:26;10.25;;;6.20;;
7645;SDS011;3864;48.180;14.178;2024-01-07T13:04:53;10.05;;;6.43;;
7645;SDS011;3864;48.180;14.178;2024-01-07T13:07:20;9.75;;;5.95;;
7645;SDS011;3864;48.180;14.178;2024-01-07T13:09:49;10.48;;;6.30;;
7645;SDS011;3864;48.180;14.178;2024-01-07T13:12:16;9.38;;;6.20;;
7645;SDS011;3864;48.180;14.178;2024-01-07T13:14:43;7.88;;;5.32;;
7645;SDS011;3864;48.180;14.178;2024-01-07T13:17:12;11.23;;;6.45;;
7645;SDS011;3864;48.180;14.178;2024-01-07T13:19:39;9.80;;;6.30;;
7645;SDS011;3864;48.180;14.178;2024-01-07T13:22:07;10.15;;;6.43;;
7645;SDS011;3864;48.180;14.178;2024-01-07T13:24:34;10.98;;;6.70;;
7645;SDS011;3864;48.180;14.178;2024-01-07T13:27:03;10.32;;;6.30;;
7645;SDS011;3864;48.180;14.178;2024-01-07T13:29:31;13.75;;;7.88;;
7645;SDS011;3864;48.180;14.178;2024-01-07T13:31:58;19.10;;;9.45;;
7645;SDS011;3864;48.180;14.178;2024-01-07T13:36:52;15.45;;;7.40;;
7645;SDS011;3864;48.180;14.178;2024-01-07T13:39:20;18.27;;;9.40;;
7645;SDS011;3864;48.180;14.178;2024-01-07T13:44:16;16.35;;;7.85;;
7645;SDS011;3864;48.180;14.178;2024-01-07T13:46:44;10.93;;;6.88;;
7645;SDS011;3864;48.180;14.178;2024-01-07T13:49:12;11.10;;;6.40;;
7645;SDS011;3864;48.180;14.178;2024-01-07T13:51:39;9.55;;;5.97;;
7645;SDS011;3864;48.180;14.178;2024-01-07T13:54:06;8.95;;;6.18;;
7645;SDS011;3864;48.180;14.178;2024-01-07T13:56:35;10.68;;;6.05;;
7645;SDS011;3864;48.180;14.178;2024-01-07T13:59:06;10.10;;;6.20;;
7645;SDS011;3864;48.180;14.178;2024-01-07T14:01:35;8.98;;;6.07;;
7645;SDS011;3864;48.180;14.178;2024-01-07T14:04:02;7.53;;;5.38;;
7645;SDS011;3864;48.180;14.178;2024-01-07T14:06:30;9.38;;;6.20;;
7645;SDS011;3864;48.180;14.178;2024-01-07T14:08:57;9.63;;;5.85;;
7645;SDS011;3864;48.180;14.178;2024-01-07T14:11:24;9.63;;;5.88;;
7645;SDS011;3864;48.180;14.178;2024-01-07T14:13:53;9.55;;;5.88;;
7645;SDS011;3864;48.180;14.178;2024-01-07T14:16:20;10.18;;;5.85;;
7645;SDS011;3864;48.180;14.178;2024-01-07T14:18:48;10.68;;;6.43;;
7645;SDS011;3864;48.180;14.178;2024-01-07T14:21:15;9.05;;;5.97;;
7645;SDS011;3864;48.180;14.178;2024-01-07T14:23:42;9.88;;;6.53;;
7645;SDS011;3864;48.180;14.178;2024-01-07T14:26:09;12.43;;;6.80;;
7645;SDS011;3864;48.180;14.178;2024-01-07T14:28:36;9.48;;;6.30;;
7645;SDS011;3864;48.180;14.178;2024-01-07T14:31:03;9.18;;;6.38;;
7645;SDS011;3864;48.180;14.178;2024-01-07T14:33:32;9.45;;;5.85;;
7645;SDS011;3864;48.180;14.178;2024-01-07T14:36:00;9.02;;;5.93;;
7645;SDS011;3864;48.180;14.178;2024-01-07T14:38:28;9.63;;;6.70;;
7645;SDS011;3864;48.180;14.178;2024-01-07T14:40:55;11.98;;;6.78;;
7645;SDS011;3864;48.180;14.178;2024-01-07T14:43:22;8.70;;;6.13;;
7645;SDS011;3864;48.180;14.178;2024-01-07T14:45:49;10.30;;;6.30;;
7645;SDS011;3864;48.180;14.178;2024-01-07T14:48:16;8.55;;;6.38;;
7645;SDS011;3864;48.180;14.178;2024-01-07T14:50:43;12.85;;;7.65;;
7645;SDS011;3864;48.180;14.178;2024-01-07T14:53:14;11.95;;;6.97;;
7645;SDS011;3864;48.180;14.178;2024-01-07T14:55:41;12.13;;;7.00;;
7645;SDS011;3864;48.180;14.178;2024-01-07T14:58:08;11.43;;;7.22;;
7645;SDS011;3864;48.180;14.178;2024-01-07T15:00:35;13.57;;;7.93;;
7645;SDS011;3864;48.180;14.178;2024-01-07T15:03:02;13.85;;;7.32;;
7645;SDS011;3864;48.180;14.178;2024-01-07T15:05:30;9.55;;;6.95;;
7645;SDS011;3864;48.180;14.178;2024-01-07T15:07:57;12.20;;;7.32;;
7645;SDS011;3864;48.180;14.178;2024-01-07T15:10:25;12.65;;;7.85;;
7645;SDS011;3864;48.180;14.178;2024-01-07T15:12:52;10.60;;;6.38;;
7645;SDS011;3864;48.180;14.178;2024-01-07T15:15:19;14.23;;;8.23;;
7645;SDS011;3864;48.180;14.178;2024-01-07T15:17:47;12.25;;;7.70;;
7645;SDS011;3864;48.180;14.178;2024-01-07T15:20:15;11.80;;;6.95;;
7645;SDS011;3864;48.180;14.178;2024-01-07T15:22:42;13.40;;;7.90;;
7645;SDS011;3864;48.180;14.178;2024-01-07T15:25:09;14.52;;;8.77;;
7645;SDS011;3864;48.180;14.178;2024-01-07T15:30:06;15.38;;;8.07;;
7645;SDS011;3864;48.180;14.178;2024-01-07T15:32:33;13.35;;;7.80;;
7645;SDS011;3864;48.180;14.178;2024-01-07T15:35:00;11.48;;;7.35;;
7645;SDS011;3864;48.180;14.178;2024-01-07T15:37:29;15.82;;;9.52;;
7645;SDS011;3864;48.180;14.178;2024-01-07T15:42:23;13.98;;;8.98;;
7645;SDS011;3864;48.180;14.178;2024-01-07T15:44:52;19.10;;;10.50;;
7645;SDS011;3864;48.180;14.178;2024-01-07T15:47:19;23.20;;;10.23;;
7645;SDS011;3864;48.180;14.178;2024-01-07T15:49:48;16.77;;;8.73;;
7645;SDS011;3864;48.180;14.178;2024-01-07T15:54:42;15.32;;;9.02;;
7645;SDS011;3864;48.180;14.178;2024-01-07T15:57:09;16.63;;;9.25;;
7645;SDS011;3864;48.180;14.178;2024-01-07T15:59:36;16.08;;;8.63;;
7645;SDS011;3864;48.180;14.178;2024-01-07T16:02:08;13.90;;;8.90;;
7645;SDS011;3864;48.180;14.178;2024-01-07T16:04:36;15.93;;;9.18;;
7645;SDS011;3864;48.180;14.178;2024-01-07T16:07:03;17.98;;;9.40;;
7645;SDS011;3864;48.180;14.178;2024-01-07T16:09:30;19.45;;;10.35;;
7645;SDS011;3864;48.180;14.178;2024-01-07T16:11:59;12.60;;;7.97;;
7645;SDS011;3864;48.180;14.178;2024-01-07T16:14:26;14.07;;;9.10;;
7645;SDS011;3864;48.180;14.178;2024-01-07T16:16:57;13.70;;;9.13;;
7645;SDS011;3864;48.180;14.178;2024-01-07T16:19:28;13.48;;;8.93;;